sensor_id;sensor_type;location;lat;lon;timestamp;noise_LAeq;noise_LA_min;noise_LA_max;noise_LA01;noise_LA95
69616;Laerm;56822;52.516;4.708;2022-09-09T00:00:11;39.64;36.55;41.70;;
69616;Laerm;56822;52.516;4.708;2022-09-09T00:00:22;38.69;34.17;49.61;;
69616;Laerm;56822;52.516;4.708;2022-09-09T00:00:34;36.12;33.28;39.76;;
69616;Laerm;56822;52.516;4.708;2022-09-09T00:00:47;39.23;35.72;42.92;;
69616;Laerm;56822;52.516;4.708;2022-09-09T00:02:00;36.19;31.64;40.99;;
69616;Laerm;56822;52.516;4.708;2022-09-09T00:02:16;38.23;35.35;43.93;;
69616;Laerm;56822;52.516;4.708;2022-09-09T00:02:28;37.63;33.27;44.30;;
69616;Laerm;56822;52.516;4.708;2022-09-09T00:02:38;37.06;32.93;42.76;;
69616;Laerm;56822;52.516;4.708;2022-09-09T00:03:05;35.28;32.71;39.69;;
69616;Laerm;56822;52.516;4.708;2022-09-09T00:03:27;34.28;30.64;39.67;;
69616;Laerm;56822;52.516;4.708;2022-09-09T00:03:47;40.68;33.83;48.23;;
69616;Laerm;56822;52.516;4.708;2022-09-09T00:04:03;46.09;35.93;58.98;;
69616;Laerm;56822;52.516;4.708;2022-09-09T00:04:19;41.12;36.27;45.35;;
69616;Laerm;56822;52.516;4.708;2022-09-09T00:04:33;43.74;40.34;47.65;;
69616;Laerm;56822;52.516;4.708;2022-09-09T00:04:45;43.32;40.97;46.79;;
69616;Laerm;56822;52.516;4.708;2022-09-09T00:06:32;45.40;34.77;56.89;;
69616;Laerm;56822;52.516;4.708;2022-09-09T00:06:49;38.84;34.01;45.76;;
69616;Laerm;56822;52.516;4.708;2022-09-09T00:07:19;38.74;35.12;44.10;;
69616;Laerm;56822;52.516;4.708;2022-09-09T00:07:48;37.77;34.14;40.59;;
69616;Laerm;56822;52.516;4.708;2022-09-09T00:07:59;37.82;33.43;42.04;;
69616;Laerm;56822;52.516;4.708;2022-09-09T00:08:20;40.09;36.95;43.96;;
69616;Laerm;56822;52.516;4.708;2022-09-09T00:09:01;40.27;36.13;44.17;;
69616;Laerm;56822;52.516;4.708;2022-09-09T00:09:16;43.61;38.85;47.43;;
69616;Laerm;56822;52.516;4.708;2022-09-09T00:09:28;41.53;37.23;47.48;;
69616;Laerm;56822;52.516;4.708;2022-09-09T00:09:45;40.76;36.49;47.02;;
69616;Laerm;56822;52.516;4.708;2022-09-09T00:10:14;41.15;36.72;50.54;;
69616;Laerm;56822;52.516;4.708;2022-09-09T00:10:40;40.81;37.71;46.17;;
69616;Laerm;56822;52.516;4.708;2022-09-09T00:10:54;42.32;39.40;45.55;;
69616;Laerm;56822;52.516;4.708;2022-09-09T00:11:08;40.61;36.04;45.02;;
69616;Laerm;56822;52.516;4.708;2022-09-09T00:11:52;39.88;36.60;47.80;;
69616;Laerm;56822;52.516;4.708;2022-09-09T00:12:21;39.78;35.98;45.07;;
69616;Laerm;56822;52.516;4.708;2022-09-09T00:13:16;39.89;34.40;44.77;;
69616;Laerm;56822;52.516;4.708;2022-09-09T00:13:31;43.00;39.16;50.21;;
69616;Laerm;56822;52.516;4.708;2022-09-09T00:13:46;41.56;38.06;45.64;;
69616;Laerm;56822;52.516;4.708;2022-09-09T00:13:58;41.05;38.19;44.19;;
69616;Laerm;56822;52.516;4.708;2022-09-09T00:14:18;42.98;39.98;47.34;;
69616;Laerm;56822;52.516;4.708;2022-09-09T00:14:51;42.37;38.83;47.37;;
69616;Laerm;56822;52.516;4.708;2022-09-09T00:15:05;40.66;35.22;47.48;;
69616;Laerm;56822;52.516;4.708;2022-09-09T00:15:20;38.73;34.30;45.28;;
69616;Laerm;56822;52.516;4.708;2022-09-09T00:16:17;42.05;37.82;46.00;;
69616;Laerm;56822;52.516;4.708;2022-09-09T00:16:29;38.85;36.49;42.67;;
69616;Laerm;56822;52.516;4.708;2022-09-09T00:16:43;39.04;35.48;42.47;;
69616;Laerm;56822;52.516;4.708;2022-09-09T00:16:55;39.11;35.33;43.55;;
69616;Laerm;56822;52.516;4.708;2022-09-09T00:17:14;42.03;37.65;44.95;;
69616;Laerm;56822;52.516;4.708;2022-09-09T00:17:58;41.14;37.44;44.72;;
69616;Laerm;56822;52.516;4.708;2022-09-09T00:18:44;41.44;36.42;47.43;;
69616;Laerm;56822;52.516;4.708;2022-09-09T00:19:00;43.23;37.52;51.71;;
69616;Laerm;56822;52.516;4.708;2022-09-09T00:19:39;38.01;34.96;42.27;;
69616;Laerm;56822;52.516;4.708;2022-09-09T00:19:58;38.86;33.72;45.16;;
69616;Laerm;56822;52.516;4.708;2022-09-09T00:20:58;39.86;35.78;43.46;;
69616;Laerm;56822;52.516;4.708;2022-09-09T00:21:13;40.31;33.50;47.74;;
69616;Laerm;56822;52.516;4.708;2022-09-09T00:21:45;41.59;37.79;47.07;;
69616;Laerm;56822;52.516;4.708;2022-09-09T00:22:00;39.36;35.08;51.81;;
69616;Laerm;56822;52.516;4.708;2022-09-09T00:22:20;44.33;39.70;49.77;;
69616;Laerm;56822;52.516;4.708;2022-09-09T00:22:30;44.59;40.33;51.25;;
69616;Laerm;56822;52.516;4.708;2022-09-09T00:22:44;50.80;43.92;57.50;;
69616;Laerm;56822;52.516;4.708;2022-09-09T00:23:00;51.76;45.42;59.37;;
69616;Laerm;56822;52.516;4.708;2022-09-09T00:23:12;48.91;40.56;55.18;;
69616;Laerm;56822;52.516;4.708;2022-09-09T00:23:46;42.04;37.09;48.06;;
69616;Laerm;56822;52.516;4.708;2022-09-09T00:23:54;38.80;34.64;55.48;;
69616;Laerm;56822;52.516;4.708;2022-09-09T00:24:22;43.89;30.97;59.39;;
69616;Laerm;56822;52.516;4.708;2022-09-09T00:24:38;34.08;29.61;43.17;;
69616;Laerm;56822;52.516;4.708;2022-09-09T00:24:52;39.61;32.71;46.52;;
69616;Laerm;56822;52.516;4.708;2022-09-09T00:25:10;38.28;34.50;43.64;;
69616;Laerm;56822;52.516;4.708;2022-09-09T00:25:26;39.49;34.71;45.61;;
69616;Laerm;56822;52.516;4.708;2022-09-09T00:25:58;39.45;33.74;44.61;;
69616;Laerm;56822;52.516;4.708;2022-09-09T00:26:45;40.32;37.48;43.25;;
69616;Laerm;56822;52.516;4.708;2022-09-09T00:27:04;38.30;35.30;49.85;;
69616;Laerm;56822;52.516;4.708;2022-09-09T00:27:44;39.07;35.71;42.12;;
69616;Laerm;56822;52.516;4.708;2022-09-09T00:27:55;38.84;35.67;43.83;;
69616;Laerm;56822;52.516;4.708;2022-09-09T00:28:24;36.96;34.09;40.03;;
69616;Laerm;56822;52.516;4.708;2022-09-09T00:28:38;42.34;36.50;49.18;;
69616;Laerm;56822;52.516;4.708;2022-09-09T00:28:55;39.07;36.13;42.19;;
69616;Laerm;56822;52.516;4.708;2022-09-09T00:29:43;39.34;35.30;42.81;;
69616;Laerm;56822;52.516;4.708;2022-09-09T00:29:47;39.39;32.87;44.74;;
69616;Laerm;56822;52.516;4.708;2022-09-09T00:30:15;32.90;30.85;34.99;;
69616;Laerm;56822;52.516;4.708;2022-09-09T00:30:32;31.83;30.07;33.67;;
69616;Laerm;56822;52.516;4.708;2022-09-09T00:30:44;32.32;30.39;34.84;;
69616;Laerm;56822;52.516;4.708;2022-09-09T00:30:56;33.22;30.70;37.36;;
69616;Laerm;56822;52.516;4.708;2022-09-09T00:31:12;35.36;31.17;40.64;;
69616;Laerm;56822;52.516;4.708;2022-09-09T00:31:23;36.16;33.44;42.50;;
69616;Laerm;56822;52.516;4.708;2022-09-09T00:31:35;40.90;34.14;46.28;;
69616;Laerm;56822;52.516;4.708;2022-09-09T00:31:47;39.73;34.64;44.60;;
69616;Laerm;56822;52.516;4.708;2022-09-09T00:31:57;37.89;34.86;41.36;;
69616;Laerm;56822;52.516;4.708;2022-09-09T00:32:16;42.25;38.93;48.23;;
69616;Laerm;56822;52.516;4.708;2022-09-09T00:32:28;41.15;37.60;44.40;;
69616;Laerm;56822;52.516;4.708;2022-09-09T00:32:39;40.10;36.54;43.71;;
69616;Laerm;56822;52.516;4.708;2022-09-09T00:32:50;37.51;35.42;39.57;;
69616;Laerm;56822;52.516;4.708;2022-09-09T00:33:11;42.21;38.10;45.41;;
69616;Laerm;56822;52.516;4.708;2022-09-09T00:33:24;40.60;36.91;45.11;;
69616;Laerm;56822;52.516;4.708;2022-09-09T00:33:36;40.32;37.18;43.60;;
69616;Laerm;56822;52.516;4.708;2022-09-09T00:33:48;41.30;37.92;47.50;;
69616;Laerm;56822;52.516;4.708;2022-09-09T00:34:19;41.00;36.83;44.89;;
69616;Laerm;56822;52.516;4.708;2022-09-09T00:34:31;40.00;37.57;45.02;;
69616;Laerm;56822;52.516;4.708;2022-09-09T00:34:46;38.62;36.33;41.76;;
69616;Laerm;56822;52.516;4.708;2022-09-09T00:35:00;39.07;33.42;44.90;;
69616;Laerm;56822;52.516;4.708;2022-09-09T00:35:14;33.99;31.60;37.19;;
69616;Laerm;56822;52.516;4.708;2022-09-09T00:35:38;36.71;33.34;41.03;;
69616;Laerm;56822;52.516;4.708;2022-09-09T00:35:58;38.83;35.58;41.81;;
69616;Laerm;56822;52.516;4.708;2022-09-09T00:36:13;40.06;37.00;44.11;;
69616;Laerm;56822;52.516;4.708;2022-09-09T00:36:26;38.96;35.42;42.92;;
69616;Laerm;56822;52.516;4.708;2022-09-09T00:36:38;40.95;35.95;45.95;;
69616;Laerm;56822;52.516;4.708;2022-09-09T00:36:49;38.96;34.67;45.10;;
69616;Laerm;56822;52.516;4.708;2022-09-09T00:37:01;40.52;36.61;44.23;;
69616;Laerm;56822;52.516;4.708;2022-09-09T00:37:13;37.05;34.19;39.83;;
69616;Laerm;56822;52.516;4.708;2022-09-09T00:37:24;36.50;33.83;40.16;;
69616;Laerm;56822;52.516;4.708;2022-09-09T00:37:38;40.80;36.27;45.87;;
69616;Laerm;56822;52.516;4.708;2022-09-09T00:37:50;38.62;35.66;41.59;;
69616;Laerm;56822;52.516;4.708;2022-09-09T00:38:10;40.57;37.64;43.76;;
69616;Laerm;56822;52.516;4.708;2022-09-09T00:38:41;38.77;33.98;44.87;;
69616;Laerm;56822;52.516;4.708;2022-09-09T00:38:52;33.43;30.26;37.42;;
69616;Laerm;56822;52.516;4.708;2022-09-09T00:39:08;35.10;31.54;38.16;;
69616;Laerm;56822;52.516;4.708;2022-09-09T00:39:45;36.54;33.06;41.43;;
69616;Laerm;56822;52.516;4.708;2022-09-09T00:39:59;39.94;36.85;43.41;;
69616;Laerm;56822;52.516;4.708;2022-09-09T00:40:30;38.51;35.43;43.78;;
69616;Laerm;56822;52.516;4.708;2022-09-09T00:41:18;44.06;40.52;49.15;;
69616;Laerm;56822;52.516;4.708;2022-09-09T00:41:56;49.49;43.29;57.94;;
69616;Laerm;56822;52.516;4.708;2022-09-09T00:42:14;45.69;42.74;49.75;;
69616;Laerm;56822;52.516;4.708;2022-09-09T00:42:26;43.50;40.31;47.49;;
69616;Laerm;56822;52.516;4.708;2022-09-09T00:42:42;41.58;38.18;46.44;;
69616;Laerm;56822;52.516;4.708;2022-09-09T00:43:28;37.41;35.20;42.20;;
69616;Laerm;56822;52.516;4.708;2022-09-09T00:43:36;39.08;36.12;42.71;;
69616;Laerm;56822;52.516;4.708;2022-09-09T00:43:42;38.82;34.20;43.50;;
69616;Laerm;56822;52.516;4.708;2022-09-09T00:43:57;35.52;31.82;40.54;;
69616;Laerm;56822;52.516;4.708;2022-09-09T00:44:42;33.03;30.40;41.41;;
69616;Laerm;56822;52.516;4.708;2022-09-09T00:45:56;38.74;34.52;43.11;;
69616;Laerm;56822;52.516;4.708;2022-09-09T00:46:32;45.11;34.06;69.24;;
69616;Laerm;56822;52.516;4.708;2022-09-09T00:47:17;39.11;35.81;43.49;;
69616;Laerm;56822;52.516;4.708;2022-09-09T00:47:45;40.80;34.44;45.58;;
69616;Laerm;56822;52.516;4.708;2022-09-09T00:47:55;40.17;36.37;45.12;;
69616;Laerm;56822;52.516;4.708;2022-09-09T00:48:09;40.19;37.16;44.42;;
69616;Laerm;56822;52.516;4.708;2022-09-09T00:48:20;38.73;34.84;43.79;;
69616;Laerm;56822;52.516;4.708;2022-09-09T00:49:02;38.49;34.65;43.05;;
69616;Laerm;56822;52.516;4.708;2022-09-09T00:49:36;38.96;34.54;43.59;;
69616;Laerm;56822;52.516;4.708;2022-09-09T00:50:59;33.71;29.90;43.71;;
69616;Laerm;56822;52.516;4.708;2022-09-09T00:51:16;37.95;32.69;43.99;;
69616;Laerm;56822;52.516;4.708;2022-09-09T00:51:36;35.54;32.84;37.96;;
69616;Laerm;56822;52.516;4.708;2022-09-09T00:52:30;35.38;32.03;39.28;;
69616;Laerm;56822;52.516;4.708;2022-09-09T00:54:45;37.54;33.80;46.81;;
69616;Laerm;56822;52.516;4.708;2022-09-09T00:54:55;38.41;32.06;49.08;;
69616;Laerm;56822;52.516;4.708;2022-09-09T00:55:13;39.24;35.64;44.05;;
69616;Laerm;56822;52.516;4.708;2022-09-09T00:56:00;39.71;36.12;43.58;;
69616;Laerm;56822;52.516;4.708;2022-09-09T00:56:27;38.50;35.11;43.18;;
69616;Laerm;56822;52.516;4.708;2022-09-09T00:56:44;37.90;34.36;42.36;;
69616;Laerm;56822;52.516;4.708;2022-09-09T00:57:04;38.98;33.87;48.70;;
69616;Laerm;56822;52.516;4.708;2022-09-09T00:57:38;39.01;34.03;45.76;;
69616;Laerm;56822;52.516;4.708;2022-09-09T00:57:49;38.69;35.60;46.91;;
69616;Laerm;56822;52.516;4.708;2022-09-09T00:58:01;39.43;33.93;43.49;;
69616;Laerm;56822;52.516;4.708;2022-09-09T00:58:12;35.33;32.55;37.55;;
69616;Laerm;56822;52.516;4.708;2022-09-09T00:58:22;37.62;34.04;42.13;;
69616;Laerm;56822;52.516;4.708;2022-09-09T00:58:32;37.59;34.28;40.44;;
69616;Laerm;56822;52.516;4.708;2022-09-09T00:58:43;35.44;33.13;38.58;;
69616;Laerm;56822;52.516;4.708;2022-09-09T00:59:04;35.93;32.87;40.08;;
69616;Laerm;56822;52.516;4.708;2022-09-09T00:59:22;37.41;31.82;42.58;;
69616;Laerm;56822;52.516;4.708;2022-09-09T00:59:39;39.99;33.98;47.39;;
69616;Laerm;56822;52.516;4.708;2022-09-09T01:00:29;38.46;34.55;44.74;;
69616;Laerm;56822;52.516;4.708;2022-09-09T01:00:42;38.91;35.60;45.24;;
69616;Laerm;56822;52.516;4.708;2022-09-09T01:01:12;39.47;34.65;45.81;;
69616;Laerm;56822;52.516;4.708;2022-09-09T01:01:21;36.22;32.63;40.38;;
69616;Laerm;56822;52.516;4.708;2022-09-09T01:01:32;38.92;35.69;44.74;;
69616;Laerm;56822;52.516;4.708;2022-09-09T01:01:42;37.02;33.87;39.60;;
69616;Laerm;56822;52.516;4.708;2022-09-09T01:01:52;38.13;36.45;40.28;;
69616;Laerm;56822;52.516;4.708;2022-09-09T01:02:08;37.03;33.35;40.39;;
69616;Laerm;56822;52.516;4.708;2022-09-09T01:04:16;37.85;35.46;46.15;;
69616;Laerm;56822;52.516;4.708;2022-09-09T01:04:21;40.40;34.40;57.82;;
69616;Laerm;56822;52.516;4.708;2022-09-09T01:04:34;37.51;34.23;43.84;;
69616;Laerm;56822;52.516;4.708;2022-09-09T01:04:46;40.58;34.68;55.91;;
69616;Laerm;56822;52.516;4.708;2022-09-09T01:05:02;41.80;35.12;58.83;;
69616;Laerm;56822;52.516;4.708;2022-09-09T01:05:27;38.94;35.15;42.84;;
69616;Laerm;56822;52.516;4.708;2022-09-09T01:05:51;38.87;35.65;42.32;;
69616;Laerm;56822;52.516;4.708;2022-09-09T01:06:34;38.66;34.32;45.86;;
69616;Laerm;56822;52.516;4.708;2022-09-09T01:06:50;41.08;37.37;45.27;;
69616;Laerm;56822;52.516;4.708;2022-09-09T01:07:04;38.09;34.26;45.49;;
69616;Laerm;56822;52.516;4.708;2022-09-09T01:07:17;35.88;33.44;38.72;;
69616;Laerm;56822;52.516;4.708;2022-09-09T01:07:28;36.79;34.20;40.16;;
69616;Laerm;56822;52.516;4.708;2022-09-09T01:07:39;35.71;33.20;39.11;;
69616;Laerm;56822;52.516;4.708;2022-09-09T01:07:51;38.55;34.89;45.59;;
69616;Laerm;56822;52.516;4.708;2022-09-09T01:08:02;36.41;32.91;39.90;;
69616;Laerm;56822;52.516;4.708;2022-09-09T01:08:49;35.11;31.85;41.70;;
69616;Laerm;56822;52.516;4.708;2022-09-09T01:09:21;38.20;34.07;45.65;;
69616;Laerm;56822;52.516;4.708;2022-09-09T01:09:51;36.89;32.88;42.67;;
69616;Laerm;56822;52.516;4.708;2022-09-09T01:10:03;40.13;35.91;43.98;;
69616;Laerm;56822;52.516;4.708;2022-09-09T01:10:21;38.62;34.84;41.65;;
69616;Laerm;56822;52.516;4.708;2022-09-09T01:10:50;35.48;32.54;39.46;;
69616;Laerm;56822;52.516;4.708;2022-09-09T01:11:01;38.98;34.59;44.05;;
69616;Laerm;56822;52.516;4.708;2022-09-09T01:11:17;39.49;36.23;42.38;;
69616;Laerm;56822;52.516;4.708;2022-09-09T01:11:37;38.24;34.61;42.67;;
69616;Laerm;56822;52.516;4.708;2022-09-09T01:11:57;37.92;34.17;42.35;;
69616;Laerm;56822;52.516;4.708;2022-09-09T01:12:16;35.77;32.45;39.15;;
69616;Laerm;56822;52.516;4.708;2022-09-09T01:12:42;40.32;35.68;44.71;;
69616;Laerm;56822;52.516;4.708;2022-09-09T01:12:53;39.74;37.06;45.52;;
69616;Laerm;56822;52.516;4.708;2022-09-09T01:13:16;38.98;35.28;43.29;;
69616;Laerm;56822;52.516;4.708;2022-09-09T01:13:30;39.30;36.57;43.41;;
69616;Laerm;56822;52.516;4.708;2022-09-09T01:13:40;38.25;35.13;43.03;;
69616;Laerm;56822;52.516;4.708;2022-09-09T01:14:38;37.38;34.92;40.48;;
69616;Laerm;56822;52.516;4.708;2022-09-09T01:14:47;38.74;34.34;45.58;;
69616;Laerm;56822;52.516;4.708;2022-09-09T01:15:02;34.78;31.40;37.23;;
69616;Laerm;56822;52.516;4.708;2022-09-09T01:15:15;33.85;31.41;38.02;;
69616;Laerm;56822;52.516;4.708;2022-09-09T01:15:28;36.80;32.65;43.16;;
69616;Laerm;56822;52.516;4.708;2022-09-09T01:15:40;38.63;35.24;46.21;;
69616;Laerm;56822;52.516;4.708;2022-09-09T01:15:51;37.49;32.88;40.54;;
69616;Laerm;56822;52.516;4.708;2022-09-09T01:16:08;34.30;31.61;38.35;;
69616;Laerm;56822;52.516;4.708;2022-09-09T01:16:21;38.45;33.42;44.83;;
69616;Laerm;56822;52.516;4.708;2022-09-09T01:16:31;40.18;36.57;43.25;;
69616;Laerm;56822;52.516;4.708;2022-09-09T01:16:42;40.29;36.04;45.82;;
69616;Laerm;56822;52.516;4.708;2022-09-09T01:16:56;41.99;37.21;47.80;;
69616;Laerm;56822;52.516;4.708;2022-09-09T01:17:11;39.08;34.17;45.79;;
69616;Laerm;56822;52.516;4.708;2022-09-09T01:17:26;41.10;36.64;45.60;;
69616;Laerm;56822;52.516;4.708;2022-09-09T01:17:44;38.79;33.70;42.62;;
69616;Laerm;56822;52.516;4.708;2022-09-09T01:18:01;36.40;32.36;40.99;;
69616;Laerm;56822;52.516;4.708;2022-09-09T01:18:15;37.25;33.48;42.33;;
69616;Laerm;56822;52.516;4.708;2022-09-09T01:18:33;35.94;33.08;39.28;;
69616;Laerm;56822;52.516;4.708;2022-09-09T01:18:45;36.46;31.69;40.58;;
69616;Laerm;56822;52.516;4.708;2022-09-09T01:18:56;33.78;31.37;36.43;;
69616;Laerm;56822;52.516;4.708;2022-09-09T01:19:07;37.50;32.16;46.80;;
69616;Laerm;56822;52.516;4.708;2022-09-09T01:19:23;34.98;33.04;38.45;;
69616;Laerm;56822;52.516;4.708;2022-09-09T01:19:59;36.65;31.73;41.79;;
69616;Laerm;56822;52.516;4.708;2022-09-09T01:20:14;37.08;32.33;45.44;;
69616;Laerm;56822;52.516;4.708;2022-09-09T01:20:29;39.50;32.83;58.06;;
69616;Laerm;56822;52.516;4.708;2022-09-09T01:21:09;39.92;33.94;44.57;;
69616;Laerm;56822;52.516;4.708;2022-09-09T01:21:29;39.88;34.14;48.21;;
69616;Laerm;56822;52.516;4.708;2022-09-09T01:22:06;35.14;32.00;44.83;;
69616;Laerm;56822;52.516;4.708;2022-09-09T01:23:45;40.01;36.43;48.18;;
69616;Laerm;56822;52.516;4.708;2022-09-09T01:25:01;39.99;33.21;49.18;;
69616;Laerm;56822;52.516;4.708;2022-09-09T01:25:05;38.83;33.17;43.44;;
69616;Laerm;56822;52.516;4.708;2022-09-09T01:25:56;40.53;35.50;49.39;;
69616;Laerm;56822;52.516;4.708;2022-09-09T01:26:35;39.78;36.07;43.41;;
69616;Laerm;56822;52.516;4.708;2022-09-09T01:26:48;38.01;34.09;45.90;;
69616;Laerm;56822;52.516;4.708;2022-09-09T01:27:01;39.72;36.08;44.72;;
69616;Laerm;56822;52.516;4.708;2022-09-09T01:27:12;37.15;33.51;40.70;;
69616;Laerm;56822;52.516;4.708;2022-09-09T01:27:23;33.79;32.08;36.34;;
69616;Laerm;56822;52.516;4.708;2022-09-09T01:27:35;36.24;32.22;41.34;;
69616;Laerm;56822;52.516;4.708;2022-09-09T01:27:47;38.32;35.16;44.03;;
69616;Laerm;56822;52.516;4.708;2022-09-09T01:28:02;37.82;35.22;43.06;;
69616;Laerm;56822;52.516;4.708;2022-09-09T01:28:18;39.45;35.76;46.04;;
69616;Laerm;56822;52.516;4.708;2022-09-09T01:28:31;36.40;32.23;40.49;;
69616;Laerm;56822;52.516;4.708;2022-09-09T01:28:46;37.87;34.16;42.74;;
69616;Laerm;56822;52.516;4.708;2022-09-09T01:28:57;35.78;32.77;40.50;;
69616;Laerm;56822;52.516;4.708;2022-09-09T01:29:08;40.80;36.96;44.95;;
69616;Laerm;56822;52.516;4.708;2022-09-09T01:29:19;40.33;37.97;44.33;;
69616;Laerm;56822;52.516;4.708;2022-09-09T01:29:30;39.23;35.83;43.74;;
69616;Laerm;56822;52.516;4.708;2022-09-09T01:29:41;39.61;36.15;43.00;;
69616;Laerm;56822;52.516;4.708;2022-09-09T01:29:51;39.10;35.42;43.40;;
69616;Laerm;56822;52.516;4.708;2022-09-09T01:30:04;38.13;34.95;46.83;;
69616;Laerm;56822;52.516;4.708;2022-09-09T01:30:15;37.05;34.11;40.30;;
69616;Laerm;56822;52.516;4.708;2022-09-09T01:30:26;38.07;33.72;42.31;;
69616;Laerm;56822;52.516;4.708;2022-09-09T01:30:38;38.37;34.70;41.99;;
69616;Laerm;56822;52.516;4.708;2022-09-09T01:30:48;39.68;36.49;42.43;;
69616;Laerm;56822;52.516;4.708;2022-09-09T01:30:59;37.90;34.67;40.77;;
69616;Laerm;56822;52.516;4.708;2022-09-09T01:31:11;38.05;34.33;43.95;;
69616;Laerm;56822;52.516;4.708;2022-09-09T01:31:26;39.46;35.98;44.32;;
69616;Laerm;56822;52.516;4.708;2022-09-09T01:31:39;35.89;32.82;38.85;;
69616;Laerm;56822;52.516;4.708;2022-09-09T01:32:47;38.99;34.63;46.29;;
69616;Laerm;56822;52.516;4.708;2022-09-09T01:32:53;41.61;38.64;44.61;;
69616;Laerm;56822;52.516;4.708;2022-09-09T01:33:03;40.35;36.36;47.35;;
69616;Laerm;56822;52.516;4.708;2022-09-09T01:33:15;37.61;34.11;40.85;;
69616;Laerm;56822;52.516;4.708;2022-09-09T01:33:26;36.89;33.48;43.41;;
69616;Laerm;56822;52.516;4.708;2022-09-09T01:33:37;34.61;32.17;37.23;;
69616;Laerm;56822;52.516;4.708;2022-09-09T01:33:47;34.88;30.96;38.95;;
69616;Laerm;56822;52.516;4.708;2022-09-09T01:33:57;37.31;34.14;40.91;;
69616;Laerm;56822;52.516;4.708;2022-09-09T01:34:11;39.17;35.78;43.15;;
69616;Laerm;56822;52.516;4.708;2022-09-09T01:34:23;42.03;38.21;45.84;;
69616;Laerm;56822;52.516;4.708;2022-09-09T01:34:36;39.63;36.39;43.11;;
69616;Laerm;56822;52.516;4.708;2022-09-09T01:34:48;39.09;34.89;43.79;;
69616;Laerm;56822;52.516;4.708;2022-09-09T01:34:59;37.76;34.88;41.06;;
69616;Laerm;56822;52.516;4.708;2022-09-09T01:35:11;39.69;35.36;44.13;;
69616;Laerm;56822;52.516;4.708;2022-09-09T01:35:44;41.08;36.45;48.15;;
69616;Laerm;56822;52.516;4.708;2022-09-09T01:35:57;40.77;36.71;44.50;;
69616;Laerm;56822;52.516;4.708;2022-09-09T01:36:15;41.46;37.57;45.18;;
69616;Laerm;56822;52.516;4.708;2022-09-09T01:36:29;39.72;36.88;43.78;;
69616;Laerm;56822;52.516;4.708;2022-09-09T01:36:46;41.38;36.85;49.21;;
69616;Laerm;56822;52.516;4.708;2022-09-09T01:37:09;40.15;36.16;48.79;;
69616;Laerm;56822;52.516;4.708;2022-09-09T01:37:20;39.50;35.92;43.05;;
69616;Laerm;56822;52.516;4.708;2022-09-09T01:37:30;40.61;37.56;45.90;;
69616;Laerm;56822;52.516;4.708;2022-09-09T01:37:41;35.54;32.84;40.66;;
69616;Laerm;56822;52.516;4.708;2022-09-09T01:37:51;36.19;33.95;40.32;;
69616;Laerm;56822;52.516;4.708;2022-09-09T01:38:02;37.91;34.56;54.14;;
69616;Laerm;56822;52.516;4.708;2022-09-09T01:38:12;39.68;35.38;43.18;;
69616;Laerm;56822;52.516;4.708;2022-09-09T01:38:24;41.21;36.56;48.53;;
69616;Laerm;56822;52.516;4.708;2022-09-09T01:38:34;40.41;36.07;46.12;;
69616;Laerm;56822;52.516;4.708;2022-09-09T01:38:46;40.00;37.20;43.76;;
69616;Laerm;56822;52.516;4.708;2022-09-09T01:38:56;37.95;33.94;41.66;;
69616;Laerm;56822;52.516;4.708;2022-09-09T01:39:06;36.02;32.00;40.29;;
69616;Laerm;56822;52.516;4.708;2022-09-09T01:39:17;36.98;33.69;40.50;;
69616;Laerm;56822;52.516;4.708;2022-09-09T01:39:27;38.84;34.41;42.36;;
69616;Laerm;56822;52.516;4.708;2022-09-09T01:39:38;38.54;35.32;42.07;;
69616;Laerm;56822;52.516;4.708;2022-09-09T01:39:48;37.48;34.37;42.00;;
69616;Laerm;56822;52.516;4.708;2022-09-09T01:39:59;37.81;35.17;43.02;;
69616;Laerm;56822;52.516;4.708;2022-09-09T01:40:09;43.76;37.41;58.47;;
69616;Laerm;56822;52.516;4.708;2022-09-09T01:40:19;41.05;37.77;45.36;;
69616;Laerm;56822;52.516;4.708;2022-09-09T01:40:30;42.02;36.28;46.97;;
69616;Laerm;56822;52.516;4.708;2022-09-09T01:40:40;46.73;34.14;65.40;;
69616;Laerm;56822;52.516;4.708;2022-09-09T01:40:51;39.03;35.51;43.60;;
69616;Laerm;56822;52.516;4.708;2022-09-09T01:41:02;41.48;37.20;46.09;;
69616;Laerm;56822;52.516;4.708;2022-09-09T01:41:12;39.81;37.59;42.25;;
69616;Laerm;56822;52.516;4.708;2022-09-09T01:41:23;36.82;34.19;40.05;;
69616;Laerm;56822;52.516;4.708;2022-09-09T01:41:33;36.24;33.03;41.13;;
69616;Laerm;56822;52.516;4.708;2022-09-09T01:41:43;38.16;35.30;47.46;;
69616;Laerm;56822;52.516;4.708;2022-09-09T01:41:54;37.65;35.25;43.46;;
69616;Laerm;56822;52.516;4.708;2022-09-09T01:42:06;38.21;35.58;42.88;;
69616;Laerm;56822;52.516;4.708;2022-09-09T01:42:17;37.92;33.44;43.76;;
69616;Laerm;56822;52.516;4.708;2022-09-09T01:42:29;35.96;32.78;39.59;;
69616;Laerm;56822;52.516;4.708;2022-09-09T01:42:39;38.10;36.01;40.86;;
69616;Laerm;56822;52.516;4.708;2022-09-09T01:42:49;39.12;35.64;42.37;;
69616;Laerm;56822;52.516;4.708;2022-09-09T01:42:59;37.39;35.04;40.01;;
69616;Laerm;56822;52.516;4.708;2022-09-09T01:43:10;37.97;35.64;40.74;;
69616;Laerm;56822;52.516;4.708;2022-09-09T01:43:21;38.06;35.52;40.35;;
69616;Laerm;56822;52.516;4.708;2022-09-09T01:43:31;39.89;36.10;46.23;;
69616;Laerm;56822;52.516;4.708;2022-09-09T01:43:42;40.18;37.39;47.29;;
69616;Laerm;56822;52.516;4.708;2022-09-09T01:43:53;42.45;37.34;49.14;;
69616;Laerm;56822;52.516;4.708;2022-09-09T01:44:05;43.51;39.30;48.58;;
69616;Laerm;56822;52.516;4.708;2022-09-09T01:44:15;40.89;37.19;47.50;;
69616;Laerm;56822;52.516;4.708;2022-09-09T01:44:26;39.56;36.33;42.61;;
69616;Laerm;56822;52.516;4.708;2022-09-09T01:44:37;40.97;36.96;47.38;;
69616;Laerm;56822;52.516;4.708;2022-09-09T01:44:48;39.73;35.87;42.92;;
69616;Laerm;56822;52.516;4.708;2022-09-09T01:44:58;38.50;35.80;41.09;;
69616;Laerm;56822;52.516;4.708;2022-09-09T01:45:08;37.29;34.43;41.15;;
69616;Laerm;56822;52.516;4.708;2022-09-09T01:45:19;37.08;33.59;41.78;;
69616;Laerm;56822;52.516;4.708;2022-09-09T01:45:29;36.26;33.63;40.82;;
69616;Laerm;56822;52.516;4.708;2022-09-09T01:45:40;37.39;34.23;41.00;;
69616;Laerm;56822;52.516;4.708;2022-09-09T01:45:53;40.13;35.90;46.98;;
69616;Laerm;56822;52.516;4.708;2022-09-09T01:46:04;40.99;35.42;47.02;;
69616;Laerm;56822;52.516;4.708;2022-09-09T01:46:15;42.75;40.05;46.04;;
69616;Laerm;56822;52.516;4.708;2022-09-09T01:46:26;42.83;39.80;46.30;;
69616;Laerm;56822;52.516;4.708;2022-09-09T01:46:37;43.41;39.01;50.10;;
69616;Laerm;56822;52.516;4.708;2022-09-09T01:46:48;41.63;37.30;47.32;;
69616;Laerm;56822;52.516;4.708;2022-09-09T01:46:58;38.87;35.64;42.66;;
69616;Laerm;56822;52.516;4.708;2022-09-09T01:47:08;39.30;36.90;41.63;;
69616;Laerm;56822;52.516;4.708;2022-09-09T01:47:19;39.74;36.09;43.51;;
69616;Laerm;56822;52.516;4.708;2022-09-09T01:47:29;41.47;38.22;46.73;;
69616;Laerm;56822;52.516;4.708;2022-09-09T01:47:39;41.99;38.05;45.20;;
69616;Laerm;56822;52.516;4.708;2022-09-09T01:47:50;38.74;36.00;43.90;;
69616;Laerm;56822;52.516;4.708;2022-09-09T01:48:02;37.48;34.77;41.03;;
69616;Laerm;56822;52.516;4.708;2022-09-09T01:48:13;40.75;35.58;51.56;;
69616;Laerm;56822;52.516;4.708;2022-09-09T01:48:23;37.96;33.98;44.74;;
69616;Laerm;56822;52.516;4.708;2022-09-09T01:48:34;40.66;35.31;47.08;;